Terminal Aerodrome Forecast
Issued by NWS Central Illinois

Home | Current Version | Previous Version | Text Only | Print | Product List | Glossary On
Versions: 1 2 3 4 5 6 7 8 9 10 11 12 13 14 15 16 17 18
000
FTUS43 KILX 031100
TAFSPI
TAF
KSPI 031135Z 0312/0412 15012KT P6SM OVC020
      TEMPO 0312/0315 4SM -FZDZ BR BKN012
     FM031500 18014G22KT 3SM -RA BR BKN007 OVC015
     FM032100 25013G21KT 5SM BR OVC015
     FM040200 29015KT P6SM OVC020=

USA.gov is the U.S. government's official web portal to all federal, state and local government web resources and services.